CPA766 VVTS-VHHH
Flight info
| Callsign | CPA766 |
|---|---|
| Flight time | N/A |
| Altitude | 39000 |
| Route | PATMA W12 PCA G221 BUNTA A1 IKELA P901 IDOOSI V561 CANTO |
| Aircraft | A333/H-SDE3GHIJ2J3J5M1RVWXY/LB2D1 |
Departure
| Time | N/A |
|---|---|
| Airport | Tan Son Nhat International Airport (VVTS) |
Arrival
| Time | 2026-05-05 10:50 |
|---|---|
| Airport | Hong Kong International Airport (VHHH) |
| Time | Latitude | Longitude | Altitude | Speed | Heading |
|---|---|---|---|---|---|
| 2026-05-05 10:27 | 20.44781 | 113.11108 | 38536 ft | 466 kts | 19° |
| 2026-05-05 10:28 | 20.47728 | 113.12555 | 38282 ft | 466 kts | 19° |
| 2026-05-05 10:28 | 20.50679 | 113.14005 | 38029 ft | 467 kts | 19° |
| 2026-05-05 10:28 | 20.53635 | 113.15458 | 37756 ft | 468 kts | 19° |
| 2026-05-05 10:28 | 20.56593 | 113.16912 | 37495 ft | 469 kts | 19° |
| 2026-05-05 10:29 | 20.59555 | 113.18370 | 37242 ft | 469 kts | 19° |
| 2026-05-05 10:29 | 20.62530 | 113.19834 | 36985 ft | 470 kts | 19° |
| 2026-05-05 10:29 | 20.65503 | 113.21297 | 36737 ft | 471 kts | 19° |
| 2026-05-05 10:29 | 20.68483 | 113.22765 | 36495 ft | 471 kts | 19° |
| 2026-05-05 10:30 | 20.71463 | 113.24234 | 36262 ft | 472 kts | 19° |
| 2026-05-05 10:30 | 20.74446 | 113.25705 | 35865 ft | 470 kts | 19° |
| 2026-05-05 10:30 | 20.77419 | 113.27171 | 35214 ft | 473 kts | 19° |
| 2026-05-05 10:30 | 20.80377 | 113.28630 | 34536 ft | 476 kts | 19° |
| 2026-05-05 10:31 | 20.83410 | 113.30126 | 33781 ft | 481 kts | 19° |
| 2026-05-05 10:31 | 20.86461 | 113.31631 | 32975 ft | 484 kts | 19° |
| 2026-05-05 10:31 | 20.89525 | 113.33145 | 32215 ft | 486 kts | 19° |
| 2026-05-05 10:31 | 20.92603 | 113.34667 | 31434 ft | 489 kts | 19° |
| 2026-05-05 10:32 | 20.95705 | 113.36201 | 30626 ft | 492 kts | 19° |
| 2026-05-05 10:32 | 20.98826 | 113.37744 | 29749 ft | 496 kts | 20° |
| 2026-05-05 10:32 | 21.01980 | 113.39305 | 28815 ft | 499 kts | 20° |
| 2026-05-05 10:32 | 21.05134 | 113.40868 | 27894 ft | 501 kts | 20° |
| 2026-05-05 10:33 | 21.08301 | 113.42437 | 26960 ft | 503 kts | 20° |
| 2026-05-05 10:33 | 21.11487 | 113.44016 | 26003 ft | 506 kts | 20° |
| 2026-05-05 10:33 | 21.14660 | 113.45592 | 25542 ft | 498 kts | 20° |
| 2026-05-05 10:33 | 21.17777 | 113.47142 | 25021 ft | 491 kts | 20° |
| 2026-05-05 10:34 | 21.20873 | 113.48676 | 24347 ft | 489 kts | 20° |
| 2026-05-05 10:34 | 21.23910 | 113.50182 | 23739 ft | 485 kts | 20° |
| 2026-05-05 10:34 | 21.26964 | 113.51698 | 23061 ft | 482 kts | 20° |
| 2026-05-05 10:34 | 21.29986 | 113.53199 | 22380 ft | 477 kts | 21° |
| 2026-05-05 10:35 | 21.32977 | 113.54687 | 21745 ft | 472 kts | 21° |
| 2026-05-05 10:35 | 21.35942 | 113.56162 | 21098 ft | 468 kts | 21° |
| 2026-05-05 10:35 | 21.38887 | 113.57628 | 20472 ft | 463 kts | 21° |
| 2026-05-05 10:35 | 21.41796 | 113.59076 | 19842 ft | 459 kts | 21° |
| 2026-05-05 10:36 | 21.44673 | 113.60509 | 19221 ft | 455 kts | 21° |
| 2026-05-05 10:36 | 21.47525 | 113.61932 | 18602 ft | 452 kts | 21° |
| 2026-05-05 10:36 | 21.50357 | 113.63357 | 17953 ft | 448 kts | 22° |
| 2026-05-05 10:36 | 21.53168 | 113.64774 | 17310 ft | 442 kts | 22° |
| 2026-05-05 10:37 | 21.55944 | 113.66169 | 16674 ft | 437 kts | 22° |
| 2026-05-05 10:37 | 21.58682 | 113.67542 | 16060 ft | 432 kts | 22° |
| 2026-05-05 10:37 | 21.61397 | 113.68902 | 15504 ft | 426 kts | 22° |
| 2026-05-05 10:37 | 21.64002 | 113.70237 | 15159 ft | 404 kts | 26° |
| 2026-05-05 10:38 | 21.66237 | 113.71899 | 14847 ft | 387 kts | 37° |
| 2026-05-05 10:38 | 21.68223 | 113.73745 | 14399 ft | 370 kts | 36° |
| 2026-05-05 10:38 | 21.70373 | 113.75235 | 13348 ft | 366 kts | 22° |
| 2026-05-05 10:38 | 21.72786 | 113.75990 | 12391 ft | 356 kts | 4° |
| 2026-05-05 10:39 | 21.75203 | 113.76222 | 11830 ft | 340 kts | 0° |
| 2026-05-05 10:39 | 21.77500 | 113.76349 | 11502 ft | 321 kts | 360° |
| 2026-05-05 10:39 | 21.79672 | 113.76448 | 11173 ft | 304 kts | 359° |
| 2026-05-05 10:39 | 21.81753 | 113.76533 | 10691 ft | 297 kts | 359° |
| 2026-05-05 10:40 | 21.83807 | 113.76612 | 10142 ft | 293 kts | 359° |
| 2026-05-05 10:40 | 21.85842 | 113.76688 | 9536 ft | 291 kts | 359° |
| 2026-05-05 10:40 | 21.87863 | 113.76762 | 8905 ft | 289 kts | 359° |
| 2026-05-05 10:40 | 21.89856 | 113.76837 | 8313 ft | 286 kts | 359° |
| 2026-05-05 10:41 | 21.91808 | 113.76909 | 7760 ft | 283 kts | 0° |
| 2026-05-05 10:41 | 21.93764 | 113.76982 | 7219 ft | 279 kts | 0° |
| 2026-05-05 10:41 | 21.95687 | 113.77054 | 6728 ft | 274 kts | 0° |
| 2026-05-05 10:41 | 21.97547 | 113.77124 | 6445 ft | 261 kts | 0° |
| 2026-05-05 10:42 | 22.01131 | 113.77254 | 5977 ft | 262 kts | 0° |
| 2026-05-05 10:42 | 22.02962 | 113.77322 | 5708 ft | 263 kts | 0° |
| 2026-05-05 10:42 | 22.04797 | 113.77392 | 5386 ft | 263 kts | 1° |
| 2026-05-05 10:43 | 22.06621 | 113.77454 | 5079 ft | 262 kts | 0° |
| 2026-05-05 10:43 | 22.08446 | 113.77509 | 4758 ft | 262 kts | 360° |
| 2026-05-05 10:43 | 22.10267 | 113.77478 | 4498 ft | 258 kts | 351° |
| 2026-05-05 10:43 | 22.11968 | 113.76956 | 4276 ft | 250 kts | 335° |
| 2026-05-05 10:44 | 22.13519 | 113.76217 | 4203 ft | 238 kts | 333° |
| 2026-05-05 10:44 | 22.14985 | 113.75476 | 4078 ft | 227 kts | 332° |
| 2026-05-05 10:44 | 22.16376 | 113.74772 | 3969 ft | 216 kts | 333° |
| 2026-05-05 10:44 | 22.17686 | 113.74111 | 3845 ft | 206 kts | 333° |
| 2026-05-05 10:45 | 22.18968 | 113.73465 | 3631 ft | 202 kts | 333° |
| 2026-05-05 10:45 | 22.20235 | 113.72829 | 3410 ft | 199 kts | 334° |
| 2026-05-05 10:45 | 22.21497 | 113.72191 | 3033 ft | 203 kts | 335° |
| 2026-05-05 10:45 | 22.22827 | 113.71708 | 2744 ft | 199 kts | 355° |
| 2026-05-05 10:46 | 22.24130 | 113.72008 | 2626 ft | 192 kts | 32° |
| 2026-05-05 10:46 | 22.25198 | 113.72850 | 2495 ft | 189 kts | 42° |
| 2026-05-05 10:46 | 22.26180 | 113.73767 | 2386 ft | 188 kts | 44° |
| 2026-05-05 10:46 | 22.27159 | 113.74698 | 2295 ft | 187 kts | 44° |
| 2026-05-05 10:47 | 22.28005 | 113.75739 | 2214 ft | 184 kts | 59° |
| 2026-05-05 10:47 | 22.28553 | 113.76977 | 2127 ft | 182 kts | 72° |
| 2026-05-05 10:47 | 22.28959 | 113.78262 | 1923 ft | 180 kts | 73° |
| 2026-05-05 10:47 | 22.29354 | 113.79489 | 1697 ft | 164 kts | 72° |
| 2026-05-05 10:48 | 22.29709 | 113.80582 | 1451 ft | 148 kts | 73° |
| 2026-05-05 10:48 | 22.30029 | 113.81592 | 1259 ft | 137 kts | 73° |
| 2026-05-05 10:48 | 22.30340 | 113.82540 | 1083 ft | 132 kts | 72° |
| 2026-05-05 10:48 | 22.30651 | 113.83479 | 935 ft | 133 kts | 71° |
| 2026-05-05 10:49 | 22.30945 | 113.84425 | 794 ft | 133 kts | 73° |
| 2026-05-05 10:49 | 22.31231 | 113.85371 | 634 ft | 133 kts | 71° |
| 2026-05-05 10:49 | 22.31535 | 113.86316 | 467 ft | 133 kts | 71° |
| 2026-05-05 10:49 | 22.31832 | 113.87259 | 273 ft | 132 kts | 71° |
| 2026-05-05 10:50 | 22.32141 | 113.88191 | 89 ft | 132 kts | 72° |
| 2026-05-05 10:50 | 22.32420 | 113.89051 | 35 ft | 102 kts | 71° |
| 2026-05-05 10:50 | 22.32590 | 113.89572 | 36 ft | 52 kts | 70° |
| 2026-05-05 10:50 | 22.32686 | 113.89878 | 36 ft | 20 kts | 75° |
| 2026-05-05 10:51 | 22.32702 | 113.90016 | 36 ft | 18 kts | 90° |
| 2026-05-05 10:51 | 22.32687 | 113.90145 | 36 ft | 17 kts | 102° |
| 2026-05-05 10:51 | 22.32665 | 113.90271 | 36 ft | 17 kts | 100° |
| 2026-05-05 10:51 | 22.32661 | 113.90355 | 36 ft | 11 kts | 74° |
| 2026-05-05 10:52 | 22.32685 | 113.90436 | 36 ft | 12 kts | 71° |
| 2026-05-05 10:52 | 22.32714 | 113.90525 | 36 ft | 13 kts | 70° |
| 2026-05-05 10:52 | 22.32747 | 113.90621 | 36 ft | 14 kts | 70° |
| 2026-05-05 10:52 | 22.32780 | 113.90723 | 36 ft | 15 kts | 71° |
| 2026-05-05 10:53 | 22.32814 | 113.90832 | 36 ft | 16 kts | 71° |
| 2026-05-05 10:53 | 22.32852 | 113.90947 | 36 ft | 17 kts | 70° |
| 2026-05-05 10:53 | 22.32891 | 113.91067 | 36 ft | 17 kts | 71° |
| 2026-05-05 10:53 | 22.32931 | 113.91193 | 36 ft | 18 kts | 71° |
| 2026-05-05 10:54 | 22.32973 | 113.91325 | 36 ft | 19 kts | 71° |
| 2026-05-05 10:54 | 22.33017 | 113.91460 | 36 ft | 20 kts | 71° |
| 2026-05-05 10:54 | 22.33061 | 113.91602 | 36 ft | 20 kts | 70° |
| 2026-05-05 10:54 | 22.33109 | 113.91744 | 36 ft | 15 kts | 71° |
| 2026-05-05 10:55 | 22.33111 | 113.91752 | 36 ft | 0 kts | 71° |